Flight Track Log - Related Links

Times and Time Zones

All times are in EST time to prevent confusion due to time zone crossing. See the EGF3240 flight status page for this flight to view local times or setup timezone preferences in your user account.

Time Position Orientation Groundspeed Altitude Reporting Facility
EST Latitude Longitude Course Direction KTS MPH feet Rate Location/Type
Thu 04:50:16 PM 41.9833 -87.9500 264° West 158 182 1,800  Level Chicago TRACON
Thu 04:51:16 PM 41.9833 -88.0167 270° West 214 246 4,100 1,700 Climbing Chicago TRACON
Thu 04:52:00 PM 41.9500 -88.2409 270° West  Level FlightAware Approximate
Thu 04:52:16 PM 41.9833 -88.1167 270° West 241 277 5,200  Level Chicago TRACON
Thu 04:52:54 PM 41.9803 -88.1700 266° West 242 278 6,700 1,320 Climbing Chicago Center
Thu 04:53:00 PM 41.9412 -88.3546 262° West  Level FlightAware Approximate
Thu 04:53:56 PM 41.9742 -88.2617 265° West 247 284 7,400  Level Chicago Center
Thu 04:54:00 PM 41.9307 -88.4681 264° West  Level FlightAware Approximate
Thu 04:54:58 PM 41.9656 -88.3592 263° West 246 283 9,900  Level Chicago Center
Thu 04:55:00 PM 41.9220 -88.5819 264° West  Level FlightAware Approximate
Thu 04:56:00 PM 41.9536 -88.4508 260° West 250 288 12,500  Level Chicago Center
Thu 04:57:03 PM 41.9442 -88.5472 263° West 245 282 15,000 1,872 Climbing Chicago Center
Thu 04:58:05 PM 41.9381 -88.6394 265° West 250 288 16,400 1,355 Climbing Chicago Center
Thu 04:59:07 PM 41.9308 -88.7497 265° West 276 318 17,800 1,113 Climbing Chicago Center
Thu 05:00:09 PM 41.9247 -88.8533 266° West 282 325 18,700 1,065 Climbing Chicago Center
Thu 05:01:11 PM 41.9164 -88.9642 264° West 293 337 20,000 1,210 Climbing Chicago Center
Thu 05:02:13 PM 41.9092 -89.0808 265° West 307 353 21,200 1,161 Climbing Chicago Center
Thu 05:03:15 PM 41.9003 -89.1989 264° West 317 365 22,400 1,306 Climbing Chicago Center
Thu 05:04:17 PM 41.8867 -89.3444 263° West 327 376 23,900 1,306 Climbing Chicago Center
Thu 05:05:19 PM 41.8758 -89.4644 263° West 327 376 25,100 1,152 Climbing Chicago Center
Thu 05:06:22 PM 41.8633 -89.5819 262° West 323 372 26,300 1,200 Climbing Chicago Center
Thu 05:07:24 PM 41.8511 -89.7008 262° West 323 372 27,600 1,210 Climbing Chicago Center
Thu 05:08:26 PM 41.8411 -89.8178 263° West 319 367 28,800 1,258 Climbing Chicago Center
Thu 05:09:28 PM 41.8311 -89.9556 264° West 321 369 30,200 1,258 Climbing Chicago Center
Thu 05:10:30 PM 41.8222 -90.0728 264° West 319 367 31,400 1,161 Climbing Chicago Center
Thu 05:11:32 PM 41.8108 -90.1919 263° West 322 371 32,600 1,161 Climbing Chicago Center
Thu 05:12:34 PM 41.7961 -90.3228 261° West 343 395 33,800 677 Climbing Chicago Center
Thu 05:13:36 PM 41.7842 -90.4483 263° West 343 395 34,000 97 Climbing Chicago Center
Thu 05:14:38 PM 41.7711 -90.5797 262° West 353 406 34,000  Level Chicago Center
Thu 05:15:41 PM 41.7561 -90.7369 263° West 366 421 34,000  Level Chicago Center
Thu 05:16:43 PM 41.7425 -90.8731 262° West 369 425 34,000  Level Chicago Center
Thu 05:17:45 PM 41.7297 -91.0103 263° West 371 427 34,000  Level Chicago Center
Thu 05:18:47 PM 41.7156 -91.1458 262° West 370 426 34,000  Level Chicago Center
Thu 05:19:49 PM 41.7025 -91.2817 263° West 369 425 34,000  Level Chicago Center
Thu 05:20:51 PM 41.6853 -91.4450 262° West 371 427 34,000  Level Chicago Center
Thu 05:21:53 PM 41.6717 -91.5822 262° West 373 429 34,000  Level Chicago Center
Thu 05:22:55 PM 41.6575 -91.7200 262° West 374 430 34,000  Level Chicago Center
Thu 05:23:57 PM 41.6419 -91.8567 261° West 374 430 34,000  Level Chicago Center
Thu 05:25:00 PM 41.6347 -91.9947 266° West 374 430 34,000  Level Chicago Center
Thu 05:26:02 PM 41.6303 -92.1589 268° West 371 427 34,000  Level Chicago Center
Thu 05:27:04 PM 41.6264 -92.2969 268° West 372 428 34,000  Level Chicago Center
Thu 05:28:06 PM 41.6225 -92.4311 268° West 367 422 34,000  Level Chicago Center
Thu 05:29:08 PM 41.6197 -92.5692 269° West 369 425 34,000  Level Chicago Center
Thu 05:30:02 PM 41.6156 -92.6864 267° West 370 426 34,000  Level Minneapolis Center
Thu 05:31:04 PM 41.6097 -92.8217 267° West 370 426 34,000  Level Minneapolis Center
Thu 05:32:05 PM 41.6047 -92.9858 268° West 370 426 34,000  Level Minneapolis Center
Thu 05:33:07 PM 41.6006 -93.1217 268° West 371 427 34,000  Level Minneapolis Center
Thu 05:34:09 PM 41.5958 -93.2583 267° West 371 427 34,000  Level Minneapolis Center
Thu 05:35:11 PM 41.5908 -93.3953 267° West 371 427 34,000  Level Minneapolis Center
Thu 05:36:13 PM 41.5842 -93.5322 266° West 371 427 34,000 -339 Level Minneapolis Center
Thu 05:37:15 PM 41.5789 -93.6967 268° West 371 427 33,300 -1,065 Descending Minneapolis Center
Thu 05:38:17 PM 41.5725 -93.8322 266° West 371 427 31,800 -1,452 Descending Minneapolis Center
Thu 05:39:19 PM 41.5667 -93.9633 267° West 362 417 30,300 -1,500 Descending Minneapolis Center
Thu 05:40:21 PM 41.5611 -94.0981 267° West 362 417 28,700 -1,645 Descending Minneapolis Center
Thu 05:41:23 PM 41.5542 -94.2572 267° West 376 433 26,900 -1,839 Descending Minneapolis Center
Thu 05:42:25 PM 41.5478 -94.4017 267° West 386 444 24,900 -1,935 Descending Minneapolis Center
Thu 05:43:27 PM 41.5414 -94.5447 267° West 388 447 22,900 -1,984 Descending Minneapolis Center
Thu 05:44:29 PM 41.5358 -94.6825 267° West 377 434 20,800 -1,984 Descending Minneapolis Center
Thu 05:45:31 PM 41.5283 -94.8158 266° West 367 422 18,800 -1,889 Descending Minneapolis Center
Thu 05:46:17 PM 41.5361 -94.9414 275° West 349 402 17,400 -1,475 Descending Minneapolis Center
Thu 05:46:32 PM 41.5211 -94.9461 193° South 358 412 17,300 -1,291 Descending Minneapolis Center
Thu 05:47:36 PM 41.5253 -95.1072 272° West 342 394 15,700 -1,742 Descending Minneapolis Center
Thu 05:48:36 PM 41.4961 -95.2192 251° West 340 391 13,700 -1,869 Descending Minneapolis Center
Thu 05:48:37 PM 41.5044 -95.2269 325° Northwest 330 380 13,800 -2,066 Climbing Minneapolis Center
Thu 05:49:37 PM 41.4725 -95.3369 249° West 282 325 11,600 -2,066 Descending Minneapolis Center
Thu 05:49:38 PM 41.4669 -95.3233 119° Southeast 320 368 11,700 -1,574 Climbing Minneapolis Center
Thu 05:50:38 PM 41.4456 -95.4264 255° West 249 287 10,000 -1,548 Descending Minneapolis Center
Thu 05:50:40 PM 41.4403 -95.4153 122° Southeast 292 336 10,100 -1,969 Climbing Minneapolis Center
Thu 05:51:42 PM 41.4175 -95.4956 249° West 257 296 7,900 -2,308 Descending Minneapolis Center
Thu 05:51:45 PM 41.4200 -95.5131 281° West 230 265 7,600 -2,032 Descending Minneapolis Center
Thu 05:52:44 PM 41.3956 -95.5797 244° Southwest 245 282 5,800 -2,066 Descending Minneapolis Center
Thu 05:52:46 PM 41.3994 -95.6072 281° West 247 284 5,500 -871 Descending Minneapolis Center
Thu 05:53:46 PM 41.4092 -95.6692 282° West 248 285 4,900 -738 Descending Minneapolis Center
Thu 05:54:48 PM 41.4319 -95.7719 286° West 245 282 4,000 -491 Descending Minneapolis Center
Thu 05:55:36 PM 41.4450 -95.8519 282° West 236 272 4,000  Level Minneapolis Center
Thu 05:55:50 PM 41.4414 -95.8550 212° Southwest 244 281 4,000 -590 Level Minneapolis Center
Thu 05:56:37 PM 41.4292 -95.9261 257° West 201 231 3,400 -774 Descending Minneapolis Center
Thu 05:56:52 PM 41.4250 -95.9281 199° South 226 260 3,200 -492 Descending Minneapolis Center
Thu 05:57:38 PM 41.3947 -95.9775 231° Southwest 173 199 2,900 -387 Descending Minneapolis Center
Thu 05:57:54 PM 41.3894 -95.9728 146° Southeast 197 227 2,800 -545 Descending Minneapolis Center
Thu 05:58:33 PM 41.3644 -95.9614 161° South 122 140 2,400 -581 Descending Minneapolis Center
Thu 05:58:56 PM 41.3569 -95.9483 127° Southeast 155 178 2,200 -769 Descending Minneapolis Center
Thu 05:59:51 PM 41.3264 -95.9242 149° Southeast 128 147 1,400 -774 Descending Minneapolis Center
Thu 05:59:58 PM 41.3272 -95.9183 79° East 141 162 1,400 -348 Level Minneapolis Center
Thu 06:01:00 PM 41.2942 -95.8856 143° Southeast 136 157 1,000 -387 Descending Minneapolis Center

Login

Don't have an account? Register now (free) for customized features, flight alerts, and more!